Time;durP1;ratioP1;P1;durP2;ratioP2;P2;SDS_P1;SDS_P2;PMS_P1;PMS_P2;Temp;Humidity;BMP_temperature;BMP_pressure;BME280_temperature;BME280_humidity;BME280_pressure;Samples;Min_cycle;Max_cycle;Signal;HPM_P1;HPM_P2
2022/09/03 00:01:05;;;;;;;;;;;;;;;28.01;42.73;100780.28;5065751;28;20082;-52
2022/09/03 00:03:56;;;;;;;6.43;2.50;;;;;;;28.02;42.55;100780.25;5072534;28;19924;-52
2022/09/03 00:06:46;;;;;;;4.55;2.35;;;;;;;28.01;42.63;100767.09;5067032;28;20047;-51
2022/09/03 00:09:23;;;;;;;5.63;2.42;;;;;;;27.96;43.16;100772.41;5055241;28;20029;-50
2022/09/03 00:12:08;;;;;;;3.83;2.70;;;;;;;27.94;42.72;100766.25;5054774;28;20031;-50
2022/09/03 00:14:40;;;;;;;2.78;2.22;;;;;;;27.93;42.84;100764.50;5072381;28;20112;-50
2022/09/03 00:17:15;;;;;;;3.70;2.40;;;;;;;27.89;42.65;100763.63;5072688;28;20092;-52
2022/09/03 00:20:05;;;;;;;3.30;2.60;;;;;;;27.91;42.83;100771.53;5072744;28;20037;-51
2022/09/03 00:22:39;;;;;;;3.15;2.38;;;;;;;27.91;42.69;100771.53;5054664;28;20024;-52
2022/09/03 00:25:13;;;;;;;5.25;2.92;;;;;;;27.79;43.00;100763.72;5072209;28;20068;-51
2022/09/03 00:27:43;;;;;;;5.20;2.58;;;;;;;27.87;42.73;100770.69;5054983;28;20060;-49
2022/09/03 00:30:13;;;;;;;4.32;2.72;;;;;;;27.86;42.70;100774.22;5055023;28;20063;-51
2022/09/03 00:32:58;;;;;;;4.57;2.85;;;;;;;27.75;42.95;100776.91;5072272;28;20466;-53
2022/09/03 00:35:30;;;;;;;4.70;2.67;;;;;;;27.79;42.89;100761.94;5072112;28;20170;-51
2022/09/03 00:38:00;;;;;;;3.33;2.67;;;;;;;27.80;42.71;100768.97;5071213;28;20029;-53
2022/09/03 00:40:55;;;;;;;2.90;2.60;;;;;;;27.77;42.73;100762.84;5054264;28;20025;-52
2022/09/03 00:43:35;;;;;;;5.30;3.33;;;;;;;27.78;42.94;100761.97;5068386;28;20485;-51
2022/09/03 00:46:17;;;;;;;5.25;2.88;;;;;;;27.79;42.97;100758.47;5072214;28;20037;-51
2022/09/03 00:48:53;;;;;;;5.15;3.05;;;;;;;27.76;42.84;100759.34;5054666;28;20025;-50
2022/09/03 00:51:49;;;;;;;5.28;2.88;;;;;;;27.75;42.91;100761.09;5072190;28;20037;-49
2022/09/03 00:54:29;;;;;;;3.92;2.63;;;;;;;27.78;42.82;100760.19;5065235;28;20040;-52
2022/09/03 00:56:58;;;;;;;2.90;2.25;;;;;;;27.80;42.82;100766.34;5071893;28;20613;-53
2022/09/03 01:00:07;;;;;;;4.22;2.60;;;;;;;27.77;42.88;100771.63;5072270;28;20086;-48
2022/09/03 01:02:55;;;;;;;6.30;2.60;;;;;;;27.79;42.79;100761.09;5062638;28;20041;-49
2022/09/03 01:05:28;;;;;;;3.72;2.95;;;;;;;27.85;42.62;100763.66;5037934;28;20048;-52
2022/09/03 01:07:57;;;;;;;4.68;2.92;;;;;;;27.81;42.63;100765.47;5054489;28;20024;-50
2022/09/03 01:10:37;;;;;;;4.95;2.83;;;;;;;27.74;42.74;100759.34;5072113;28;20088;-50
2022/09/03 01:13:12;;;;;;;4.13;3.28;;;;;;;27.75;42.74;100755.84;5072156;28;20028;-52
2022/09/03 01:15:53;;;;;;;6.20;2.97;;;;;;;27.78;42.66;100762.84;5071956;28;20024;-50
2022/09/03 01:18:59;;;;;;;3.60;3.05;;;;;;;27.64;42.84;100739.19;5075698;28;20025;-51
2022/09/03 01:21:51;;;;;;;3.92;3.13;;;;;;;27.66;42.87;100747.97;5066017;28;20111;-52
2022/09/03 01:24:30;;;;;;;4.40;3.30;;;;;;;27.64;42.88;100733.06;5055286;28;20045;-52
2022/09/03 01:27:11;;;;;;;6.00;2.72;;;;;;;27.62;42.79;100750.63;5075438;28;20024;-52
2022/09/03 01:29:47;;;;;;;4.32;2.90;;;;;;;27.60;42.92;100755.94;5075763;28;20048;-50
2022/09/03 01:32:32;;;;;;;6.13;3.70;;;;;;;27.61;42.95;100755.03;5058065;28;20047;-49
2022/09/03 01:35:20;;;;;;;3.45;2.83;;;;;;;27.66;42.73;100760.28;5075310;28;20059;-48
2022/09/03 01:38:01;;;;;;;4.10;2.65;;;;;;;27.63;42.84;100750.66;5074911;28;20024;-48
2022/09/03 01:40:32;;;;;;;3.65;3.05;;;;;;;27.63;42.85;100742.75;5057857;28;20082;-50
2022/09/03 01:43:04;;;;;;;4.75;3.05;;;;;;;27.62;42.93;100748.91;5057552;28;20027;-51
2022/09/03 01:45:39;;;;;;;3.55;2.85;;;;;;;27.60;42.85;100748.03;5075470;28;20046;-52
2022/09/03 01:48:34;;;;;;;3.35;2.38;;;;;;;27.59;42.83;100735.72;5057833;28;20048;-50
2022/09/03 01:51:16;;;;;;;3.30;2.92;;;;;;;27.56;42.84;100741.00;5071665;28;20127;-51
2022/09/03 01:54:07;;;;;;;3.40;2.80;;;;;;;27.56;42.93;100741.88;5075275;28;20027;-52
2022/09/03 01:56:36;;;;;;;4.60;3.38;;;;;;;27.58;42.91;100741.88;5070056;28;20037;-51
2022/09/03 01:59:11;;;;;;;3.15;2.83;;;;;;;27.56;43.01;100739.25;5074928;28;20047;-52
2022/09/03 02:01:46;;;;;;;4.00;2.83;;;;;;;27.58;42.78;100744.53;5057353;28;20074;-52
2022/09/03 02:04:24;;;;;;;3.85;3.30;;;;;;;27.55;42.94;100729.56;5073689;28;20465;-50
2022/09/03 02:06:59;;;;;;;3.90;2.92;;;;;;;27.54;42.84;100742.78;5057031;28;20694;-50
2022/09/03 02:09:26;;;;;;;;;;;;;;;27.60;42.90;100745.38;5075413;28;20100;-55
2022/09/03 02:12:02;;;;;;;3.58;2.97;;;;;;;27.57;42.78;100745.41;5074694;28;20045;-55
2022/09/03 02:14:31;;;;;;;5.35;3.00;;;;;;;27.55;42.73;100742.75;5074682;28;20107;-52
2022/09/03 02:17:01;;;;;;;3.22;2.70;;;;;;;27.58;42.78;100747.16;5056877;28;20021;-51
2022/09/03 02:19:31;;;;;;;3.08;2.30;;;;;;;27.54;42.84;100753.31;5056830;28;20021;-51
2022/09/03 02:21:59;;;;;;;3.15;2.40;;;;;;;27.49;42.94;100748.09;5074734;28;20029;-53
2022/09/03 02:24:29;;;;;;;3.85;2.50;;;;;;;27.53;42.85;100743.66;5056665;28;20165;-48
2022/09/03 02:26:58;;;;;;;3.08;2.40;;;;;;;27.49;42.81;100745.44;5074292;28;20026;-49
2022/09/03 02:29:26;;;;;;;2.88;2.28;;;;;;;27.47;42.99;100736.66;5073833;28;20034;-49
2022/09/03 02:31:55;;;;;;;2.25;2.05;;;;;;;27.47;42.87;100741.06;5056882;28;20099;-49
2022/09/03 02:34:23;;;;;;;2.28;2.08;;;;;;;27.49;42.79;100734.91;5056409;28;20115;-52
2022/09/03 02:36:53;;;;;;;2.90;2.60;;;;;;;27.47;42.99;100744.56;5073936;28;20438;-53
2022/09/03 02:39:21;;;;;;;4.78;2.30;;;;;;;27.44;42.96;100736.66;5074154;28;20035;-52
2022/09/03 02:41:55;;;;;;;3.10;2.45;;;;;;;27.43;43.06;100737.53;5074123;28;20028;-51
2022/09/03 02:44:30;;;;;;;2.40;2.20;;;;;;;27.41;42.99;100734.03;5055890;28;20024;-52
2022/09/03 02:47:04;;;;;;;2.58;2.33;;;;;;;27.41;43.12;100739.28;5073789;28;20036;-50
2022/09/03 02:49:33;;;;;;;2.63;2.28;;;;;;;27.40;43.04;100733.16;5074044;28;20028;-52
2022/09/03 02:52:08;;;;;;;2.40;2.00;;;;;;;27.36;43.21;100730.56;5073946;28;20462;-51
2022/09/03 02:54:38;;;;;;;7.32;2.35;;;;;;;27.38;42.98;100729.66;5073567;28;20033;-50
2022/09/03 02:57:08;;;;;;;2.65;2.15;;;;;;;27.36;43.21;100731.41;5073907;28;20475;-52
2022/09/03 02:59:38;;;;;;;2.53;2.13;;;;;;;27.37;42.96;100730.53;5055884;28;20433;-52
2022/09/03 03:02:07;;;;;;;3.05;2.15;;;;;;;27.37;43.11;100725.28;5073806;28;20401;-49
2022/09/03 03:04:35;;;;;;;2.35;2.13;;;;;;;27.38;43.09;100729.66;5073649;28;20096;-52
2022/09/03 03:07:04;;;;;;;2.15;1.95;;;;;;;27.38;43.09;100728.78;5073530;28;20064;-52
2022/09/03 03:09:33;;;;;;;2.90;2.08;;;;;;;27.36;43.10;100728.78;5073422;28;20074;-51
2022/09/03 03:12:01;;;;;;;2.78;2.10;;;;;;;27.37;43.04;100730.53;5073496;28;20032;-49
2022/09/03 03:14:30;;;;;;;2.15;1.95;;;;;;;27.38;43.31;100727.03;5073241;28;20375;-48
2022/09/03 03:16:58;;;;;;;1.85;1.73;;;;;;;27.41;43.02;100726.13;5073462;28;20107;-52
2022/09/03 03:19:27;;;;;;;2.10;1.90;;;;;;;27.40;42.92;100717.34;5073350;28;20037;-50
2022/09/03 03:21:55;;;;;;;2.15;1.90;;;;;;;27.39;42.82;100718.25;5073213;28;20077;-47
2022/09/03 03:24:24;;;;;;;2.28;2.00;;;;;;;27.39;42.93;100718.25;5073311;28;20024;-48
2022/09/03 03:26:56;;;;;;;2.53;2.00;;;;;;;27.38;42.89;100719.13;5073111;28;20490;-48
2022/09/03 03:29:25;;;;;;;2.35;1.80;;;;;;;27.37;42.69;100717.38;5073445;28;20030;-49
2022/09/03 03:31:53;;;;;;;2.50;2.15;;;;;;;27.37;43.11;100719.13;5073141;28;20028;-48
2022/09/03 03:34:26;;;;;;;2.30;1.88;;;;;;;27.35;42.91;100718.28;5072544;28;20131;-48
2022/09/03 03:36:55;;;;;;;2.05;1.77;;;;;;;27.33;43.34;100718.25;5073120;28;20535;-48
2022/09/03 03:39:23;;;;;;;2.80;2.00;;;;;;;27.30;43.03;100713.91;5072275;28;20469;-49
2022/09/03 03:41:52;;;;;;;2.60;2.08;;;;;;;27.31;43.18;100709.47;5073273;28;20016;-50
2022/09/03 03:44:20;;;;;;;2.50;1.80;;;;;;;27.32;43.02;100713.88;5073041;28;20029;-49
2022/09/03 03:46:49;;;;;;;2.67;2.20;;;;;;;27.35;43.12;100719.13;5072409;28;20529;-53
2022/09/03 03:49:18;;;;;;;1.58;1.45;;;;;;;27.35;43.06;100724.41;5072823;28;20059;-54
2022/09/03 03:51:46;;;;;;;2.05;1.30;;;;;;;27.37;42.91;100729.69;5072729;28;20024;-52
2022/09/03 03:54:15;;;;;;;1.60;1.50;;;;;;;27.35;43.06;100724.41;5072364;28;20501;-51
2022/09/03 03:56:44;;;;;;;1.73;1.63;;;;;;;27.38;42.88;100734.94;5072696;28;20111;-51
2022/09/03 03:59:12;;;;;;;2.08;1.70;;;;;;;27.37;42.98;100725.28;5072634;28;20047;-51
2022/09/03 04:01:41;;;;;;;1.85;1.75;;;;;;;27.31;43.03;100720.03;5072457;28;20032;-50
2022/09/03 04:04:13;;;;;;;2.63;2.03;;;;;;;27.29;43.09;100719.19;5072589;28;20530;-51
2022/09/03 04:06:42;;;;;;;3.28;2.00;;;;;;;27.33;43.26;100718.25;5072407;28;20040;-52
2022/09/03 04:09:14;;;;;;;2.15;1.70;;;;;;;27.32;43.06;100713.00;5072575;28;20155;-52
2022/09/03 04:11:44;;;;;;;2.45;1.80;;;;;;;27.30;43.03;100715.66;5072740;28;20100;-52
2022/09/03 04:14:12;;;;;;;3.10;1.90;;;;;;;27.32;42.92;100718.28;5072387;28;20089;-51
2022/09/03 04:16:41;;;;;;;2.40;1.80;;;;;;;27.30;43.14;100718.31;5072384;28;20025;-52
2022/09/03 04:19:10;;;;;;;3.13;2.00;;;;;;;27.31;43.04;100722.66;5072522;28;20543;-52
2022/09/03 04:21:38;;;;;;;2.90;1.80;;;;;;;27.30;43.06;100721.78;5072416;28;20546;-51
2022/09/03 04:24:07;;;;;;;3.10;1.83;;;;;;;27.21;43.20;100708.69;5054961;28;20056;-52
2022/09/03 04:26:35;;;;;;;3.63;2.00;;;;;;;27.29;43.12;100725.31;5072615;28;20047;-50
2022/09/03 04:29:06;;;;;;;3.25;1.50;;;;;;;27.30;43.14;100718.31;5072279;28;20028;-48
2022/09/03 04:31:35;;;;;;;3.35;1.80;;;;;;;27.25;43.19;100718.31;5072632;28;20071;-52
2022/09/03 04:34:05;;;;;;;3.42;1.65;;;;;;;27.29;43.39;100722.69;5072509;28;20467;-52
2022/09/03 04:36:33;;;;;;;3.10;2.28;;;;;;;27.31;43.07;100717.38;5072328;28;20078;-53
2022/09/03 04:39:02;;;;;;;3.20;2.35;;;;;;;27.31;42.98;100720.03;5072478;28;20488;-51
2022/09/03 04:41:32;;;;;;;3.28;2.25;;;;;;;27.27;43.07;100710.41;5072199;28;20037;-53
2022/09/03 04:44:01;;;;;;;2.85;2.33;;;;;;;27.23;43.09;100711.31;5072092;28;20032;-51
2022/09/03 04:46:32;;;;;;;3.42;2.10;;;;;;;27.14;43.15;100692.00;5072107;28;20131;-53
2022/09/03 04:49:00;;;;;;;3.28;2.33;;;;;;;27.25;43.20;100701.63;5072138;28;20056;-53
2022/09/03 04:51:29;;;;;;;4.40;2.50;;;;;;;27.26;43.30;100703.38;5073845;28;20024;-50
2022/09/03 04:53:59;;;;;;;2.95;2.15;;;;;;;27.21;43.42;100702.53;5076430;28;20131;-52
2022/09/03 04:56:29;;;;;;;4.07;2.22;;;;;;;27.10;43.36;100687.66;5076079;28;20665;-54
2022/09/03 04:58:59;;;;;;;2.70;2.13;;;;;;;27.20;43.33;100701.66;5076405;28;20029;-51
2022/09/03 05:01:29;;;;;;;4.97;2.38;;;;;;;27.25;43.13;100701.63;5076042;28;20028;-48
2022/09/03 05:03:58;;;;;;;3.40;2.33;;;;;;;27.21;43.28;100700.78;5076028;28;20087;-50
2022/09/03 05:06:27;;;;;;;5.30;2.50;;;;;;;27.22;43.37;100707.78;5075912;28;20432;-52
2022/09/03 05:08:56;;;;;;;4.25;2.40;;;;;;;27.23;43.02;100709.53;5075849;28;20032;-49
2022/09/03 05:11:26;;;;;;;5.88;2.05;;;;;;;27.24;43.29;100699.88;5075759;28;20094;-48
2022/09/03 05:13:56;;;;;;;3.10;2.17;;;;;;;27.28;43.08;100701.63;5075998;28;20025;-50
2022/09/03 05:16:25;;;;;;;3.63;2.00;;;;;;;27.24;43.09;100705.16;5075696;28;20032;-52
2022/09/03 05:18:55;;;;;;;7.18;2.70;;;;;;;27.20;43.19;100708.69;5058238;28;20052;-49
2022/09/03 05:21:24;;;;;;;4.55;2.90;;;;;;;27.22;43.18;100702.50;5058494;28;20028;-50
2022/09/03 05:23:53;;;;;;;3.78;2.88;;;;;;;27.22;43.21;100701.66;5075601;28;20116;-48
2022/09/03 05:26:24;;;;;;;4.13;2.28;;;;;;;27.19;43.23;100702.53;5075274;28;20066;-50
2022/09/03 05:28:57;;;;;;;4.00;2.63;;;;;;;27.19;43.24;100701.66;5075874;28;20067;-47
2022/09/03 05:31:27;;;;;;;2.65;2.22;;;;;;;27.17;43.29;100701.69;5075644;28;20106;-48
2022/09/03 05:33:57;;;;;;;3.95;2.70;;;;;;;27.17;43.28;100701.69;5075646;28;20028;-49
2022/09/03 05:36:29;;;;;;;3.75;2.50;;;;;;;27.18;43.39;100705.16;5075353;28;20108;-49
2022/09/03 05:39:01;;;;;;;2.75;2.22;;;;;;;27.20;43.28;100706.03;5075111;28;20025;-47
2022/09/03 05:41:33;;;;;;;4.03;2.88;;;;;;;27.18;43.28;100706.06;5075275;28;20024;-51
2022/09/03 05:44:04;;;;;;;4.75;2.55;;;;;;;27.17;43.22;100713.94;5075382;28;20024;-51
2022/09/03 05:46:37;;;;;;;2.67;2.30;;;;;;;27.14;43.21;100705.19;5056926;28;20032;-52
2022/09/03 05:49:07;;;;;;;3.20;2.20;;;;;;;27.18;43.14;100708.69;5075494;28;20032;-53
2022/09/03 05:51:38;;;;;;;4.28;2.13;;;;;;;27.18;43.22;100716.59;5074544;28;20029;-50
2022/09/03 05:54:07;;;;;;;4.18;2.70;;;;;;;27.19;43.08;100713.09;5074972;28;20032;-51
2022/09/03 05:56:38;;;;;;;3.28;2.40;;;;;;;27.21;43.26;100713.06;5075243;28;20035;-52
2022/09/03 05:59:08;;;;;;;4.60;2.85;;;;;;;27.22;43.31;100720.09;5075137;28;20107;-52
2022/09/03 06:01:39;;;;;;;4.22;2.38;;;;;;;27.19;43.21;100718.34;5057149;28;20052;-52
2022/09/03 06:04:10;;;;;;;4.28;2.55;;;;;;;27.18;43.27;100720.97;5073866;28;20041;-50
2022/09/03 06:06:42;;;;;;;6.72;3.40;;;;;;;27.17;43.21;100720.09;5075310;28;20067;-49
2022/09/03 06:09:13;;;;;;;7.43;2.92;;;;;;;27.18;42.98;100720.97;5074713;28;20031;-53
2022/09/03 06:11:44;;;;;;;3.95;2.50;;;;;;;27.20;43.10;100714.84;5074948;28;20105;-48
2022/09/03 06:14:13;;;;;;;3.78;2.70;;;;;;;27.21;43.32;100720.97;5074888;28;20166;-52
2022/09/03 06:16:44;;;;;;;7.18;2.92;;;;;;;27.17;43.23;100719.22;5074496;28;20025;-53
2022/09/03 06:19:13;;;;;;;5.25;3.13;;;;;;;27.12;43.10;100716.59;5074551;28;20027;-50
2022/09/03 06:21:43;;;;;;;7.90;3.47;;;;;;;27.12;43.25;100714.88;5074791;28;20477;-52
2022/09/03 06:24:17;;;;;;;6.85;3.20;;;;;;;27.19;43.21;100707.81;5074705;28;20047;-52
2022/09/03 06:26:45;;;;;;;4.18;2.95;;;;;;;27.18;43.22;100720.97;5074240;28;20402;-49
2022/09/03 06:29:14;;;;;;;4.95;2.63;;;;;;;27.14;43.21;100710.44;5074449;28;20470;-51
2022/09/03 06:31:42;;;;;;;3.55;2.80;;;;;;;27.23;43.05;100722.69;5074173;28;20115;-53
2022/09/03 06:34:11;;;;;;;9.02;3.38;;;;;;;27.16;43.24;100710.44;5074259;28;20103;-51
2022/09/03 06:36:40;;;;;;;6.43;3.30;;;;;;;27.18;43.13;100719.22;5074268;28;20090;-51
2022/09/03 06:39:08;;;;;;;3.70;2.78;;;;;;;27.19;43.43;100723.63;5074256;28;20477;-51
2022/09/03 06:41:37;;;;;;;3.75;2.78;;;;;;;27.19;43.30;100717.44;5074244;28;20056;-51
2022/09/03 06:44:10;;;;;;;8.90;3.13;;;;;;;27.17;43.27;100720.09;5073928;28;20020;-51
2022/09/03 06:46:41;;;;;;;5.95;3.35;;;;;;;27.25;43.16;100720.94;5073875;28;20386;-51
2022/09/03 06:49:10;;;;;;;7.90;3.17;;;;;;;27.23;43.31;100721.84;5073968;28;20028;-50
2022/09/03 06:51:39;;;;;;;7.15;3.10;;;;;;;27.21;43.41;100718.31;5074061;28;20020;-52
2022/09/03 06:54:09;;;;;;;7.38;3.13;;;;;;;27.24;43.27;100732.34;5056073;28;20546;-50
2022/09/03 06:56:39;;;;;;;8.73;3.15;;;;;;;27.24;43.31;100721.81;5073850;28;20455;-52
2022/09/03 06:59:11;;;;;;;8.70;3.30;;;;;;;27.25;43.41;100728.84;5056171;28;20069;-48
2022/09/03 07:01:41;;;;;;;8.32;3.22;;;;;;;27.28;43.34;100723.56;5073617;28;20029;-52
2022/09/03 07:04:10;;;;;;;6.43;3.03;;;;;;;27.35;42.99;100729.66;5073350;28;20039;-52
2022/09/03 07:06:40;;;;;;;8.18;2.95;;;;;;;27.45;42.77;100730.50;5073363;28;20035;-52
2022/09/03 07:09:10;;;;;;;6.55;3.00;;;;;;;27.46;42.98;100729.66;5073595;28;20438;-48
2022/09/03 07:11:45;;;;;;;9.05;3.33;;;;;;;27.52;42.73;100739.28;5055633;28;20025;-47
2022/09/03 07:14:13;;;;;;;;;;;;;;;27.55;42.66;100745.38;5073632;28;20099;-50
2022/09/03 07:16:42;;;;;;;4.38;2.90;;;;;;;27.56;42.66;100741.88;5073097;28;19912;-48
2022/09/03 07:19:12;;;;;;;5.65;2.88;;;;;;;27.57;42.76;100743.63;5073428;28;20075;-47
2022/09/03 07:21:42;;;;;;;4.95;2.70;;;;;;;27.51;42.77;100742.78;5073276;28;20032;-48
2022/09/03 07:24:11;;;;;;;5.32;2.83;;;;;;;27.52;42.56;100742.81;5073240;28;20090;-51
2022/09/03 07:26:43;;;;;;;5.35;2.75;;;;;;;27.53;42.45;100747.19;5073238;28;20034;-50
2022/09/03 07:29:12;;;;;;;9.77;2.70;;;;;;;27.49;42.94;100741.91;5073468;28;20024;-48
2022/09/03 07:31:43;;;;;;;6.70;2.67;;;;;;;27.52;42.85;100755.06;5073302;28;20089;-49
2022/09/03 07:34:13;;;;;;;5.43;2.75;;;;;;;27.48;43.12;100748.97;5055294;28;20028;-48
2022/09/03 07:36:45;;;;;;;5.15;2.75;;;;;;;27.44;43.00;100742.81;5073265;28;20033;-48
2022/09/03 07:39:15;;;;;;;3.13;2.53;;;;;;;27.44;43.14;100745.44;5073164;28;20122;-48
2022/09/03 07:41:45;;;;;;;17.08;2.92;;;;;;;27.48;42.85;100750.69;5073053;28;20034;-49
2022/09/03 07:44:18;;;;;;;5.32;2.78;;;;;;;27.49;42.83;100752.44;5073178;28;20036;-52
2022/09/03 07:46:46;;;;;;;6.05;2.60;;;;;;;27.48;42.80;100746.31;5072683;28;20081;-48
2022/09/03 07:49:16;;;;;;;7.65;2.60;;;;;;;27.50;42.81;100747.19;5072849;28;20032;-49
2022/09/03 07:51:49;;;;;;;3.60;2.63;;;;;;;27.51;42.67;100761.22;5072757;28;20036;-51
2022/09/03 07:54:18;;;;;;;5.80;2.92;;;;;;;27.51;42.64;100756.84;5072676;28;20405;-50
2022/09/03 07:56:47;;;;;;;7.00;2.47;;;;;;;27.52;42.43;100762.97;5072932;28;20052;-52
2022/09/03 07:59:15;;;;;;;6.93;2.42;;;;;;;27.58;42.44;100765.59;5072851;28;20033;-49
2022/09/03 08:01:43;;;;;;;5.82;2.42;;;;;;;27.57;42.73;100771.75;5072717;28;20107;-52
2022/09/03 08:04:13;;;;;;;5.90;2.20;;;;;;;27.57;42.55;100769.13;5072555;28;20445;-51
2022/09/03 08:06:41;;;;;;;6.10;2.40;;;;;;;27.52;42.67;100762.97;5072353;28;20190;-52
2022/09/03 08:09:12;;;;;;;6.40;2.45;;;;;;;27.58;42.46;100770.88;5055030;28;20028;-50
2022/09/03 08:11:42;;;;;;;9.48;1.80;;;;;;;27.58;42.45;100770.88;5054930;28;20033;-50
2022/09/03 08:14:13;;;;;;;3.75;2.03;;;;;;;27.60;42.46;100767.34;5072432;28;20028;-49
2022/09/03 08:16:46;;;;;;;5.13;1.63;;;;;;;27.60;42.46;100772.59;5072465;28;20028;-51
2022/09/03 08:19:15;;;;;;;6.07;2.10;;;;;;;27.64;42.23;100767.31;5072440;28;20028;-50
2022/09/03 08:21:44;;;;;;;3.75;1.65;;;;;;;27.64;42.28;100769.94;5072313;28;20028;-52
2022/09/03 08:24:14;;;;;;;4.60;1.30;;;;;;;27.67;42.21;100769.94;5072503;28;20033;-51
2022/09/03 08:26:43;;;;;;;4.40;1.50;;;;;;;27.59;42.34;100764.72;5071367;28;20037;-51
2022/09/03 08:29:12;;;;;;;5.40;1.77;;;;;;;27.57;42.50;100769.97;5072326;28;20028;-51
2022/09/03 08:31:39;;;;;;;2.85;1.27;;;;;;;27.57;42.11;100780.50;5072499;28;20027;-51
2022/09/03 08:34:10;;;;;;;3.75;1.63;;;;;;;27.64;42.31;100780.50;5071900;28;20024;-52
2022/09/03 08:36:40;;;;;;;5.15;1.58;;;;;;;27.61;42.24;100778.75;5072490;28;20402;-51
2022/09/03 08:39:10;;;;;;;3.38;1.55;;;;;;;27.66;42.18;100779.59;5072226;28;20070;-51
2022/09/03 08:41:54;;;;;;;4.75;1.58;;;;;;;27.66;42.14;100782.22;5071904;28;20028;-50
2022/09/03 08:44:45;;;;;;;2.33;0.90;;;;;;;27.65;41.98;100787.50;5072362;28;20017;-48
2022/09/03 08:47:34;;;;;;;4.72;1.80;;;;;;;27.62;42.17;100787.53;5035627;28;20393;-49
2022/09/03 08:50:12;;;;;;;5.45;1.60;;;;;;;27.59;42.10;100793.69;5065354;28;20037;-48
2022/09/03 08:53:01;;;;;;;3.67;1.27;;;;;;;27.69;41.95;100798.03;5054568;28;20176;-49
2022/09/03 08:55:41;;;;;;;4.95;1.60;;;;;;;27.67;42.09;100799.78;5065652;28;20044;-51
2022/09/03 08:58:17;;;;;;;5.78;1.30;;;;;;;27.67;41.85;100788.38;5084845;28;20024;-49
2022/09/03 09:01:06;;;;;;;6.20;1.85;;;;;;;27.67;41.81;100799.78;5099092;28;20054;-53
2022/09/03 09:03:35;;;;;;;3.83;1.42;;;;;;;27.65;41.54;100800.69;5071748;28;20144;-49
2022/09/03 09:06:13;;;;;;;5.07;1.55;;;;;;;27.34;41.70;100804.28;5097226;28;20370;-52
2022/09/03 09:08:48;;;;;;;7.60;1.73;;;;;;;27.39;41.61;100806.91;5100320;28;20522;-52
2022/09/03 09:11:43;;;;;;;5.80;1.40;;;;;;;27.34;41.76;100792.91;5097458;28;20619;-52
2022/09/03 09:14:21;;;;;;;6.63;1.80;;;;;;;27.48;41.70;100803.41;5084379;28;20032;-52
2022/09/03 09:17:08;;;;;;;4.43;1.55;;;;;;;27.49;41.86;100800.78;5099285;28;20047;-50
2022/09/03 09:19:42;;;;;;;3.85;1.38;;;;;;;27.52;41.80;100808.66;5091261;28;20063;-51
2022/09/03 09:22:37;;;;;;;5.30;1.85;;;;;;;27.43;41.93;100804.28;5096545;28;20073;-52
2022/09/03 09:25:13;;;;;;;7.38;1.38;;;;;;;27.49;41.71;100808.69;5097362;28;20107;-50
2022/09/03 09:27:50;;;;;;;4.70;1.50;;;;;;;27.51;41.64;100809.53;5082770;28;20481;-52
2022/09/03 09:30:19;;;;;;;3.97;1.95;;;;;;;27.55;41.35;100810.41;5102231;28;20106;-48
2022/09/03 09:32:47;;;;;;;5.50;1.45;;;;;;;27.53;41.71;100802.50;5071993;28;20118;-51
2022/09/03 09:35:19;;;;;;;8.13;1.95;;;;;;;27.47;41.58;100805.16;5095127;28;20051;-51
2022/09/03 09:37:52;;;;;;;5.68;1.65;;;;;;;27.53;41.46;100814.78;5093819;28;20484;-49
2022/09/03 09:40:40;;;;;;;5.75;1.58;;;;;;;27.50;41.65;100810.44;5078565;28;20051;-49
2022/09/03 09:43:11;;;;;;;7.00;1.42;;;;;;;27.56;41.64;100814.78;5109003;28;20016;-50
2022/09/03 09:45:44;;;;;;;4.53;1.40;;;;;;;27.55;41.68;100808.63;5097317;28;20468;-51
2022/09/03 09:48:32;;;;;;;6.68;1.63;;;;;;;27.58;41.61;100802.47;5096862;28;20405;-49
2022/09/03 09:51:21;;;;;;;6.03;1.90;;;;;;;27.57;41.90;100812.13;5097434;28;20020;-53
2022/09/03 09:54:00;;;;;;;6.38;1.80;;;;;;;27.54;42.31;100816.56;5080982;28;20389;-53
2022/09/03 09:56:27;;;;;;;7.80;1.88;;;;;;;27.43;42.73;100808.66;5087199;28;20058;-52
2022/09/03 09:59:14;;;;;;;5.72;1.80;;;;;;;27.46;42.64;100802.56;5106625;28;20085;-52
2022/09/03 10:01:44;;;;;;;5.57;1.55;;;;;;;27.53;42.32;100801.63;5106996;28;20380;-54
2022/09/03 10:04:14;;;;;;;5.35;2.10;;;;;;;27.51;42.52;100800.75;5103011;28;20024;-51
2022/09/03 10:06:54;;;;;;;4.72;1.65;;;;;;;27.55;42.57;100806.00;5080755;28;20590;-53
2022/09/03 10:09:25;;;;;;;9.13;2.30;;;;;;;27.55;42.57;100811.25;5103658;28;20032;-52
2022/09/03 10:12:33;;;;;;;9.93;2.05;;;;;;;27.54;42.51;100811.28;5098815;28;20480;-53
2022/09/03 10:15:23;;;;;;;7.82;1.98;;;;;;;27.57;42.52;100811.28;5091031;28;20493;-52
2022/09/03 10:18:14;;;;;;;9.27;1.98;;;;;;;27.56;42.67;100809.53;5089172;28;20039;-53
2022/09/03 10:20:53;;;;;;;8.45;2.38;;;;;;;27.53;42.88;100806.88;5077343;28;20520;-50
2022/09/03 10:23:27;;;;;;;9.73;1.73;;;;;;;27.47;42.72;100810.44;5087806;28;20042;-52
2022/09/03 10:26:15;;;;;;;5.28;1.70;;;;;;;27.51;42.19;100803.38;5104781;28;20035;-52
2022/09/03 10:28:43;;;;;;;8.18;1.90;;;;;;;27.49;42.29;100802.50;5087895;28;20028;-51
2022/09/03 10:31:12;;;;;;;7.43;2.17;;;;;;;27.56;41.91;100806.88;5086640;28;20076;-49
2022/09/03 10:33:48;;;;;;;9.57;2.22;;;;;;;27.52;41.56;100810.41;5095769;28;20111;-52
2022/09/03 10:36:19;;;;;;;5.97;1.77;;;;;;;27.52;41.80;100805.13;5085348;28;20028;-51
2022/09/03 10:38:51;;;;;;;6.00;1.90;;;;;;;27.46;41.74;100805.19;5078220;28;20424;-49
2022/09/03 10:41:40;;;;;;;7.47;2.38;;;;;;;27.50;41.59;100804.25;5097215;28;20021;-53
2022/09/03 10:44:34;;;;;;;8.10;2.38;;;;;;;27.51;41.50;100808.66;5082706;28;20161;-52
2022/09/03 10:47:30;;;;;;;5.47;2.28;;;;;;;27.47;41.86;100810.44;5072759;28;20043;-50
2022/09/03 10:50:15;;;;;;;4.47;1.77;;;;;;;27.44;42.14;100808.66;5089494;28;20441;-51
2022/09/03 10:53:05;;;;;;;9.38;2.13;;;;;;;27.44;41.93;100808.66;5084006;28;20550;-53
2022/09/03 10:55:41;;;;;;;7.10;1.98;;;;;;;27.43;41.89;100803.38;5097177;28;20039;-51
2022/09/03 10:58:16;;;;;;;6.30;2.03;;;;;;;27.43;42.15;100812.19;5084935;28;20100;-52
2022/09/03 11:00:53;;;;;;;8.65;2.10;;;;;;;27.42;42.38;100805.16;5077937;28;20031;-51
2022/09/03 11:03:43;;;;;;;4.88;1.80;;;;;;;27.46;42.56;100810.47;5086837;28;20591;-50
2022/09/03 11:06:27;;;;;;;5.43;1.65;;;;;;;27.41;42.93;100794.59;5081360;28;20089;-50
2022/09/03 11:08:58;;;;;;;4.90;1.75;;;;;;;27.43;42.81;100806.03;5063934;28;20047;-51
2022/09/03 11:11:36;;;;;;;5.15;1.85;;;;;;;27.40;42.89;100809.56;5098841;28;20439;-50
2022/09/03 11:14:09;;;;;;;6.85;1.90;;;;;;;27.45;43.36;100809.53;5080691;28;20023;-51
2022/09/03 11:16:58;;;;;;;5.45;1.60;;;;;;;27.40;43.55;100796.38;5083435;28;20038;-52
2022/09/03 11:19:39;;;;;;;7.15;1.85;;;;;;;27.51;42.99;100803.38;5077477;28;20032;-49
2022/09/03 11:22:07;;;;;;;7.85;2.10;;;;;;;27.53;42.99;100798.97;5101526;28;20028;-53
2022/09/03 11:24:36;;;;;;;6.47;1.83;;;;;;;27.51;42.94;100806.00;5085336;28;20041;-51
2022/09/03 11:27:35;;;;;;;9.15;1.95;;;;;;;27.49;43.45;100806.03;5082473;28;20047;-51
2022/09/03 11:30:07;;;;;;;6.00;2.05;;;;;;;27.52;42.94;100797.22;5103004;28;20031;-50
2022/09/03 11:32:54;;;;;;;5.40;1.88;;;;;;;27.55;43.20;100805.13;5099174;28;20523;-51
2022/09/03 11:35:41;;;;;;;8.32;2.53;;;;;;;27.43;44.21;100799.00;5100293;28;20040;-53
2022/09/03 11:38:22;;;;;;;7.20;1.88;;;;;;;27.57;43.49;100796.31;5101292;28;20465;-52
2022/09/03 11:41:28;;;;;;;11.32;2.45;;;;;;;27.52;43.77;100799.88;5100736;28;20060;-49
2022/09/03 11:43:55;;;;;;;8.20;1.98;;;;;;;27.59;43.49;100791.94;5100858;28;20074;-51
2022/09/03 11:46:23;;;;;;;5.22;1.65;;;;;;;27.63;43.71;100798.06;5081253;28;20449;-54
2022/09/03 11:48:54;;;;;;;9.55;1.95;;;;;;;27.68;43.84;100795.41;5102918;28;20108;-52
2022/09/03 11:51:28;;;;;;;9.75;2.20;;;;;;;27.64;43.98;100794.53;5100927;28;20028;-50
2022/09/03 11:53:59;;;;;;;7.80;2.10;;;;;;;27.64;43.99;100788.41;5098261;28;20114;-52
2022/09/03 11:56:27;;;;;;;7.93;1.90;;;;;;;27.66;43.73;100797.19;5102068;28;20039;-50
2022/09/03 11:59:13;;;;;;;7.65;2.17;;;;;;;27.58;43.63;100778.78;5100287;28;20066;-51